sensor_id;sensor_type;location;lat;lon;timestamp;pressure;altitude;pressure_sealevel;temperature;humidity
79465;BME280;68932;47.410;8.232;2024-01-30T00:02:21;98297.75;;;2.07;79.40
79465;BME280;68932;47.410;8.232;2024-01-30T00:04:49;98301.74;;;2.05;79.33
79465;BME280;68932;47.410;8.232;2024-01-30T00:07:18;98303.66;;;2.04;79.50
79465;BME280;68932;47.410;8.232;2024-01-30T00:09:48;98304.02;;;2.02;79.55
79465;BME280;68932;47.410;8.232;2024-01-30T00:12:16;98303.52;;;2.00;79.39
79465;BME280;68932;47.410;8.232;2024-01-30T00:14:44;98305.26;;;2.01;79.35
79465;BME280;68932;47.410;8.232;2024-01-30T00:17:12;98301.97;;;2.00;79.29
79465;BME280;68932;47.410;8.232;2024-01-30T00:19:41;98299.22;;;1.97;79.11
79465;BME280;68932;47.410;8.232;2024-01-30T00:22:09;98302.71;;;1.95;78.92
79465;BME280;68932;47.410;8.232;2024-01-30T00:24:37;98301.55;;;1.91;78.80
79465;BME280;68932;47.410;8.232;2024-01-30T00:27:06;98302.63;;;1.87;78.78
79465;BME280;68932;47.410;8.232;2024-01-30T00:29:34;98301.63;;;1.82;78.68
79465;BME280;68932;47.410;8.232;2024-01-30T00:32:02;98304.05;;;1.81;78.77
79465;BME280;68932;47.410;8.232;2024-01-30T00:34:31;98305.95;;;1.81;78.71
79465;BME280;68932;47.410;8.232;2024-01-30T00:36:59;98304.73;;;1.81;78.67
79465;BME280;68932;47.410;8.232;2024-01-30T00:39:27;98306.14;;;1.80;78.63
79465;BME280;68932;47.410;8.232;2024-01-30T00:41:56;98302.34;;;1.79;78.60
79465;BME280;68932;47.410;8.232;2024-01-30T00:44:24;98303.06;;;1.76;78.47
79465;BME280;68932;47.410;8.232;2024-01-30T00:46:52;98302.91;;;1.73;78.56
79465;BME280;68932;47.410;8.232;2024-01-30T00:49:21;98298.09;;;1.72;78.61
79465;BME280;68932;47.410;8.232;2024-01-30T00:51:49;98300.51;;;1.72;78.45
79465;BME280;68932;47.410;8.232;2024-01-30T00:54:17;98296.39;;;1.69;78.30
79465;BME280;68932;47.410;8.232;2024-01-30T00:56:45;98300.04;;;1.67;78.22
79465;BME280;68932;47.410;8.232;2024-01-30T00:59:14;98295.74;;;1.63;78.35
79465;BME280;68932;47.410;8.232;2024-01-30T01:01:42;98298.02;;;1.60;78.31
79465;BME280;68932;47.410;8.232;2024-01-30T01:04:10;98298.91;;;1.56;78.30
79465;BME280;68932;47.410;8.232;2024-01-30T01:06:38;98294.63;;;1.53;78.41
79465;BME280;68932;47.410;8.232;2024-01-30T01:09:07;98298.10;;;1.51;78.41
79465;BME280;68932;47.410;8.232;2024-01-30T01:11:35;98301.90;;;1.50;78.69
79465;BME280;68932;47.410;8.232;2024-01-30T01:14:03;98308.80;;;1.52;78.87
79465;BME280;68932;47.410;8.232;2024-01-30T01:16:32;98311.91;;;1.53;78.72
79465;BME280;68932;47.410;8.232;2024-01-30T01:19:01;98310.88;;;1.52;78.64
79465;BME280;68932;47.410;8.232;2024-01-30T01:21:29;98307.09;;;1.50;78.61
79465;BME280;68932;47.410;8.232;2024-01-30T01:23:57;98305.19;;;1.49;78.66
79465;BME280;68932;47.410;8.232;2024-01-30T01:26:25;98304.00;;;1.47;78.56
79465;BME280;68932;47.410;8.232;2024-01-30T01:28:54;98305.41;;;1.44;78.52
79465;BME280;68932;47.410;8.232;2024-01-30T01:31:22;98303.02;;;1.42;78.56
79465;BME280;68932;47.410;8.232;2024-01-30T01:33:50;98298.52;;;1.40;78.59
79465;BME280;68932;47.410;8.232;2024-01-30T01:36:18;98301.99;;;1.40;78.77
79465;BME280;68932;47.410;8.232;2024-01-30T01:38:47;98303.88;;;1.41;78.70
79465;BME280;68932;47.410;8.232;2024-01-30T01:41:15;98304.93;;;1.40;78.74
79465;BME280;68932;47.410;8.232;2024-01-30T01:43:43;98300.63;;;1.39;78.60
79465;BME280;68932;47.410;8.232;2024-01-30T01:46:11;98303.55;;;1.38;78.70
79465;BME280;68932;47.410;8.232;2024-01-30T01:48:40;98303.92;;;1.37;78.68
79465;BME280;68932;47.410;8.232;2024-01-30T01:51:09;98304.77;;;1.36;78.71
79465;BME280;68932;47.410;8.232;2024-01-30T01:53:37;98303.20;;;1.36;78.85
79465;BME280;68932;47.410;8.232;2024-01-30T01:56:07;98298.39;;;1.36;78.98
79465;BME280;68932;47.410;8.232;2024-01-30T01:58:37;98297.86;;;1.38;78.91
79465;BME280;68932;47.410;8.232;2024-01-30T02:01:06;98299.77;;;1.37;78.90
79465;BME280;68932;47.410;8.232;2024-01-30T02:03:35;98300.64;;;1.36;78.98
79465;BME280;68932;47.410;8.232;2024-01-30T02:06:04;98298.95;;;1.33;79.00
79465;BME280;68932;47.410;8.232;2024-01-30T02:08:33;98298.08;;;1.32;79.18
79465;BME280;68932;47.410;8.232;2024-01-30T02:11:02;98296.02;;;1.30;79.34
79465;BME280;68932;47.410;8.232;2024-01-30T02:13:30;98294.98;;;1.29;79.39
79465;BME280;68932;47.410;8.232;2024-01-30T02:15:58;98291.17;;;1.30;79.41
79465;BME280;68932;47.410;8.232;2024-01-30T02:18:27;98293.07;;;1.30;79.30
79465;BME280;68932;47.410;8.232;2024-01-30T02:20:58;98290.84;;;1.30;79.31
79465;BME280;68932;47.410;8.232;2024-01-30T02:23:27;98294.82;;;1.29;79.26
79465;BME280;68932;47.410;8.232;2024-01-30T02:25:55;98295.02;;;1.27;79.10
79465;BME280;68932;47.410;8.232;2024-01-30T02:28:23;98292.25;;;1.25;79.04
79465;BME280;68932;47.410;8.232;2024-01-30T02:30:52;98295.00;;;1.26;78.94
79465;BME280;68932;47.410;8.232;2024-01-30T02:33:20;98292.08;;;1.26;78.92
79465;BME280;68932;47.410;8.232;2024-01-30T02:35:49;98297.60;;;1.27;78.95
79465;BME280;68932;47.410;8.232;2024-01-30T02:38:17;98299.14;;;1.27;78.77
79465;BME280;68932;47.410;8.232;2024-01-30T02:40:45;98300.21;;;1.22;78.38
79465;BME280;68932;47.410;8.232;2024-01-30T02:43:14;98300.27;;;1.15;78.07
79465;BME280;68932;47.410;8.232;2024-01-30T02:45:42;98296.02;;;1.08;78.00
79465;BME280;68932;47.410;8.232;2024-01-30T02:48:10;98299.49;;;1.02;78.04
79465;BME280;68932;47.410;8.232;2024-01-30T02:50:39;98293.99;;;0.98;78.03
79465;BME280;68932;47.410;8.232;2024-01-30T02:53:07;98296.25;;;0.96;78.15
79465;BME280;68932;47.410;8.232;2024-01-30T02:55:36;98293.31;;;0.96;78.17
79465;BME280;68932;47.410;8.232;2024-01-30T02:58:04;98293.67;;;0.95;78.37
79465;BME280;68932;47.410;8.232;2024-01-30T03:00:33;98291.60;;;0.95;78.58
79465;BME280;68932;47.410;8.232;2024-01-30T03:03:01;98283.48;;;0.96;78.74
79465;BME280;68932;47.410;8.232;2024-01-30T03:05:29;98285.35;;;0.99;78.88
79465;BME280;68932;47.410;8.232;2024-01-30T03:07:57;98282.39;;;1.03;79.19
79465;BME280;68932;47.410;8.232;2024-01-30T03:10:26;98284.80;;;1.05;79.32
79465;BME280;68932;47.410;8.232;2024-01-30T03:12:54;98281.33;;;1.07;79.42
79465;BME280;68932;47.410;8.232;2024-01-30T03:15:22;98279.27;;;1.06;79.31
79465;BME280;68932;47.410;8.232;2024-01-30T03:17:51;98279.11;;;1.03;79.17
79465;BME280;68932;47.410;8.232;2024-01-30T03:20:19;98276.02;;;1.02;79.37
79465;BME280;68932;47.410;8.232;2024-01-30T03:22:47;98279.29;;;1.02;79.36
79465;BME280;68932;47.410;8.232;2024-01-30T03:25:15;98279.80;;;1.02;79.44
79465;BME280;68932;47.410;8.232;2024-01-30T03:27:44;98279.10;;;1.04;79.46
79465;BME280;68932;47.410;8.232;2024-01-30T03:30:12;98278.06;;;1.04;79.20
79465;BME280;68932;47.410;8.232;2024-01-30T03:32:41;98282.23;;;1.02;79.00
79465;BME280;68932;47.410;8.232;2024-01-30T03:35:10;98286.57;;;0.98;79.02
79465;BME280;68932;47.410;8.232;2024-01-30T03:37:38;98282.25;;;1.00;79.22
79465;BME280;68932;47.410;8.232;2024-01-30T03:40:09;98285.52;;;1.00;79.13
79465;BME280;68932;47.410;8.232;2024-01-30T03:42:37;98284.33;;;0.99;78.96
79465;BME280;68932;47.410;8.232;2024-01-30T03:45:07;98286.23;;;0.98;78.90
79465;BME280;68932;47.410;8.232;2024-01-30T03:47:35;98286.39;;;0.98;79.01
79465;BME280;68932;47.410;8.232;2024-01-30T03:50:05;98286.58;;;0.96;79.02
79465;BME280;68932;47.410;8.232;2024-01-30T03:52:34;98285.91;;;0.93;78.94
79465;BME280;68932;47.410;8.232;2024-01-30T03:55:03;98284.02;;;0.90;78.82
79465;BME280;68932;47.410;8.232;2024-01-30T03:57:31;98282.50;;;0.87;79.00
79465;BME280;68932;47.410;8.232;2024-01-30T04:00:00;98285.11;;;0.84;79.06
79465;BME280;68932;47.410;8.232;2024-01-30T04:02:28;98285.45;;;0.83;79.31
79465;BME280;68932;47.410;8.232;2024-01-30T04:04:56;98289.94;;;0.85;79.53
79465;BME280;68932;47.410;8.232;2024-01-30T04:07:24;98290.43;;;0.89;79.51
79465;BME280;68932;47.410;8.232;2024-01-30T04:09:53;98293.88;;;0.90;79.41
79465;BME280;68932;47.410;8.232;2024-01-30T04:12:21;98293.17;;;0.92;79.42
79465;BME280;68932;47.410;8.232;2024-01-30T04:14:49;98288.69;;;0.92;79.33
79465;BME280;68932;47.410;8.232;2024-01-30T04:17:17;98287.65;;;0.91;79.33
79465;BME280;68932;47.410;8.232;2024-01-30T04:19:46;98287.85;;;0.88;79.21
79465;BME280;68932;47.410;8.232;2024-01-30T04:22:14;98280.63;;;0.84;79.20
79465;BME280;68932;47.410;8.232;2024-01-30T04:24:42;98280.82;;;0.78;79.22
79465;BME280;68932;47.410;8.232;2024-01-30T04:27:10;98282.89;;;0.76;79.39
79465;BME280;68932;47.410;8.232;2024-01-30T04:29:39;98285.99;;;0.77;79.59
79465;BME280;68932;47.410;8.232;2024-01-30T04:32:08;98287.55;;;0.78;79.48
79465;BME280;68932;47.410;8.232;2024-01-30T04:34:37;98290.67;;;0.75;79.23
79465;BME280;68932;47.410;8.232;2024-01-30T04:37:07;98289.66;;;0.71;79.32
79465;BME280;68932;47.410;8.232;2024-01-30T04:39:35;98289.30;;;0.73;79.62
79465;BME280;68932;47.410;8.232;2024-01-30T04:42:05;98291.54;;;0.74;79.38
79465;BME280;68932;47.410;8.232;2024-01-30T04:44:33;98290.67;;;0.73;79.25
79465;BME280;68932;47.410;8.232;2024-01-30T04:47:01;98292.23;;;0.72;79.38
79465;BME280;68932;47.410;8.232;2024-01-30T04:49:30;98290.34;;;0.72;79.38
79465;BME280;68932;47.410;8.232;2024-01-30T04:51:58;98294.14;;;0.72;79.34
79465;BME280;68932;47.410;8.232;2024-01-30T04:54:26;98292.95;;;0.70;79.17
79465;BME280;68932;47.410;8.232;2024-01-30T04:56:54;98291.41;;;0.67;79.24
79465;BME280;68932;47.410;8.232;2024-01-30T04:59:23;98293.14;;;0.67;79.27
79465;BME280;68932;47.410;8.232;2024-01-30T05:01:51;98293.66;;;0.66;79.42
79465;BME280;68932;47.410;8.232;2024-01-30T05:04:19;98289.84;;;0.68;79.49
79465;BME280;68932;47.410;8.232;2024-01-30T05:06:47;98294.51;;;0.67;79.29
79465;BME280;68932;47.410;8.232;2024-01-30T05:09:16;98295.20;;;0.67;79.32
79465;BME280;68932;47.410;8.232;2024-01-30T05:11:44;98297.09;;;0.69;79.56
79465;BME280;68932;47.410;8.232;2024-01-30T05:14:12;98300.18;;;0.71;79.47
79465;BME280;68932;47.410;8.232;2024-01-30T05:16:41;98299.83;;;0.72;79.47
79465;BME280;68932;47.410;8.232;2024-01-30T05:19:09;98301.72;;;0.72;79.42
79465;BME280;68932;47.410;8.232;2024-01-30T05:21:37;98299.15;;;0.71;79.44
79465;BME280;68932;47.410;8.232;2024-01-30T05:24:07;98297.41;;;0.72;79.63
79465;BME280;68932;47.410;8.232;2024-01-30T05:26:35;98294.31;;;0.72;79.67
79465;BME280;68932;47.410;8.232;2024-01-30T05:29:04;98300.17;;;0.72;79.65
79465;BME280;68932;47.410;8.232;2024-01-30T05:31:32;98300.52;;;0.72;79.89
79465;BME280;68932;47.410;8.232;2024-01-30T05:34:01;98298.97;;;0.74;79.95
79465;BME280;68932;47.410;8.232;2024-01-30T05:36:29;98307.41;;;0.75;79.93
79465;BME280;68932;47.410;8.232;2024-01-30T05:38:58;98309.48;;;0.75;79.87
79465;BME280;68932;47.410;8.232;2024-01-30T05:41:26;98308.79;;;0.75;79.82
79465;BME280;68932;47.410;8.232;2024-01-30T05:43:57;98303.95;;;0.76;79.69
79465;BME280;68932;47.410;8.232;2024-01-30T05:46:25;98303.09;;;0.78;79.94
79465;BME280;68932;47.410;8.232;2024-01-30T05:48:54;98306.17;;;0.78;80.12
79465;BME280;68932;47.410;8.232;2024-01-30T05:51:22;98307.40;;;0.79;80.34
79465;BME280;68932;47.410;8.232;2024-01-30T05:53:50;98307.21;;;0.84;80.50
79465;BME280;68932;47.410;8.232;2024-01-30T05:56:18;98309.26;;;0.87;80.28
79465;BME280;68932;47.410;8.232;2024-01-30T05:58:47;98309.60;;;0.87;80.13
79465;BME280;68932;47.410;8.232;2024-01-30T06:01:15;98310.48;;;0.87;79.94
79465;BME280;68932;47.410;8.232;2024-01-30T06:03:43;98310.65;;;0.85;79.78
79465;BME280;68932;47.410;8.232;2024-01-30T06:06:12;98310.31;;;0.83;79.75
79465;BME280;68932;47.410;8.232;2024-01-30T06:08:40;98311.00;;;0.83;79.93
79465;BME280;68932;47.410;8.232;2024-01-30T06:11:11;98316.69;;;0.85;79.96
79465;BME280;68932;47.410;8.232;2024-01-30T06:13:39;98315.65;;;0.86;79.85
79465;BME280;68932;47.410;8.232;2024-01-30T06:16:10;98319.27;;;0.87;79.79
79465;BME280;68932;47.410;8.232;2024-01-30T06:18:38;98319.94;;;0.90;79.94
79465;BME280;68932;47.410;8.232;2024-01-30T06:21:07;98321.48;;;0.91;79.77
79465;BME280;68932;47.410;8.232;2024-01-30T06:23:35;98322.02;;;0.90;79.69
79465;BME280;68932;47.410;8.232;2024-01-30T06:26:04;98326.34;;;0.88;79.58
79465;BME280;68932;47.410;8.232;2024-01-30T06:28:33;98329.46;;;0.84;79.50
79465;BME280;68932;47.410;8.232;2024-01-30T06:31:02;98332.23;;;0.84;79.66
79465;BME280;68932;47.410;8.232;2024-01-30T06:33:30;98333.79;;;0.83;79.51
79465;BME280;68932;47.410;8.232;2024-01-30T06:35:58;98331.36;;;0.84;79.42
79465;BME280;68932;47.410;8.232;2024-01-30T06:38:27;98336.20;;;0.84;79.40
79465;BME280;68932;47.410;8.232;2024-01-30T06:40:55;98333.44;;;0.84;79.30
79465;BME280;68932;47.410;8.232;2024-01-30T06:43:23;98337.59;;;0.83;79.14
79465;BME280;68932;47.410;8.232;2024-01-30T06:45:51;98342.42;;;0.83;79.10
79465;BME280;68932;47.410;8.232;2024-01-30T06:48:20;98343.46;;;0.82;79.17
79465;BME280;68932;47.410;8.232;2024-01-30T06:50:48;98348.46;;;0.82;79.28
79465;BME280;68932;47.410;8.232;2024-01-30T06:53:16;98347.95;;;0.80;79.30
79465;BME280;68932;47.410;8.232;2024-01-30T06:55:45;98350.38;;;0.76;79.17
79465;BME280;68932;47.410;8.232;2024-01-30T06:58:13;98347.96;;;0.75;79.28
79465;BME280;68932;47.410;8.232;2024-01-30T07:00:41;98351.59;;;0.74;79.27
79465;BME280;68932;47.410;8.232;2024-01-30T07:03:09;98351.09;;;0.73;79.13
79465;BME280;68932;47.410;8.232;2024-01-30T07:05:38;98355.57;;;0.72;79.04
79465;BME280;68932;47.410;8.232;2024-01-30T07:08:07;98357.48;;;0.70;79.10
79465;BME280;68932;47.410;8.232;2024-01-30T07:10:35;98362.33;;;0.67;79.05
79465;BME280;68932;47.410;8.232;2024-01-30T07:13:04;98364.58;;;0.65;79.12
79465;BME280;68932;47.410;8.232;2024-01-30T07:15:32;98366.66;;;0.63;79.04
79465;BME280;68932;47.410;8.232;2024-01-30T07:18:01;98365.45;;;0.64;79.43
79465;BME280;68932;47.410;8.232;2024-01-30T07:20:29;98364.74;;;0.67;79.64
79465;BME280;68932;47.410;8.232;2024-01-30T07:22:57;98362.83;;;0.71;79.72
79465;BME280;68932;47.410;8.232;2024-01-30T07:25:25;98363.85;;;0.74;79.63
79465;BME280;68932;47.410;8.232;2024-01-30T07:27:54;98364.20;;;0.75;79.56
79465;BME280;68932;47.410;8.232;2024-01-30T07:30:22;98366.10;;;0.75;79.46
79465;BME280;68932;47.410;8.232;2024-01-30T07:32:50;98366.44;;;0.73;79.39
79465;BME280;68932;47.410;8.232;2024-01-30T07:35:19;98366.10;;;0.73;79.39
79465;BME280;68932;47.410;8.232;2024-01-30T07:37:47;98367.13;;;0.75;79.52
79465;BME280;68932;47.410;8.232;2024-01-30T07:40:16;98371.08;;;0.78;79.57
79465;BME280;68932;47.410;8.232;2024-01-30T07:42:49;98372.45;;;0.82;79.68
79465;BME280;68932;47.410;8.232;2024-01-30T07:45:18;98371.57;;;0.86;79.61
79465;BME280;68932;47.410;8.232;2024-01-30T07:47:47;98373.11;;;0.88;79.47
79465;BME280;68932;47.410;8.232;2024-01-30T07:50:15;98373.61;;;0.90;79.47
79465;BME280;68932;47.410;8.232;2024-01-30T07:52:44;98378.96;;;0.91;79.32
79465;BME280;68932;47.410;8.232;2024-01-30T07:55:12;98382.76;;;0.93;79.40
79465;BME280;68932;47.410;8.232;2024-01-30T07:57:41;98386.89;;;0.94;79.23
79465;BME280;68932;47.410;8.232;2024-01-30T08:00:11;98387.92;;;0.96;79.25
79465;BME280;68932;47.410;8.232;2024-01-30T08:02:40;98386.35;;;1.01;79.57
79465;BME280;68932;47.410;8.232;2024-01-30T08:05:09;98387.87;;;1.05;79.62
79465;BME280;68932;47.410;8.232;2024-01-30T08:07:37;98388.20;;;1.10;79.51
79465;BME280;68932;47.410;8.232;2024-01-30T08:10:07;98391.27;;;1.14;79.53
79465;BME280;68932;47.410;8.232;2024-01-30T08:12:35;98391.09;;;1.18;79.54
79465;BME280;68932;47.410;8.232;2024-01-30T08:15:05;98392.10;;;1.21;79.61
79465;BME280;68932;47.410;8.232;2024-01-30T08:17:33;98396.06;;;1.24;79.54
79465;BME280;68932;47.410;8.232;2024-01-30T08:20:01;98391.89;;;1.29;79.77
79465;BME280;68932;47.410;8.232;2024-01-30T08:22:30;98394.29;;;1.34;79.91
79465;BME280;68932;47.410;8.232;2024-01-30T08:24:58;98395.13;;;1.38;80.09
79465;BME280;68932;47.410;8.232;2024-01-30T08:27:26;98396.48;;;1.43;80.05
79465;BME280;68932;47.410;8.232;2024-01-30T08:29:54;98396.62;;;1.47;80.03
79465;BME280;68932;47.410;8.232;2024-01-30T08:32:23;98396.61;;;1.49;79.80
79465;BME280;68932;47.410;8.232;2024-01-30T08:34:51;98398.33;;;1.48;79.43
79465;BME280;68932;47.410;8.232;2024-01-30T08:37:19;98396.46;;;1.45;79.26
79465;BME280;68932;47.410;8.232;2024-01-30T08:39:48;98396.28;;;1.44;79.31
79465;BME280;68932;47.410;8.232;2024-01-30T08:42:16;98392.30;;;1.44;79.23
79465;BME280;68932;47.410;8.232;2024-01-30T08:44:44;98394.73;;;1.44;79.03
79465;BME280;68932;47.410;8.232;2024-01-30T08:47:13;98395.96;;;1.41;78.83
79465;BME280;68932;47.410;8.232;2024-01-30T08:49:41;98391.67;;;1.36;78.69
79465;BME280;68932;47.410;8.232;2024-01-30T08:52:09;98389.27;;;1.33;78.86
79465;BME280;68932;47.410;8.232;2024-01-30T08:54:37;98391.00;;;1.33;79.14
79465;BME280;68932;47.410;8.232;2024-01-30T08:57:06;98386.67;;;1.37;79.23
79465;BME280;68932;47.410;8.232;2024-01-30T08:59:34;98384.89;;;1.42;79.28
79465;BME280;68932;47.410;8.232;2024-01-30T09:02:03;98383.11;;;1.49;79.36
79465;BME280;68932;47.410;8.232;2024-01-30T09:04:31;98384.63;;;1.56;79.31
79465;BME280;68932;47.410;8.232;2024-01-30T09:06:59;98385.95;;;1.64;79.41
79465;BME280;68932;47.410;8.232;2024-01-30T09:09:27;98385.91;;;1.71;79.63
79465;BME280;68932;47.410;8.232;2024-01-30T09:11:56;98386.20;;;1.78;79.84
79465;BME280;68932;47.410;8.232;2024-01-30T09:14:24;98388.17;;;1.88;80.11
79465;BME280;68932;47.410;8.232;2024-01-30T09:16:52;98393.30;;;1.97;80.32
79465;BME280;68932;47.410;8.232;2024-01-30T09:19:20;98390.44;;;2.07;80.64
79465;BME280;68932;47.410;8.232;2024-01-30T09:21:49;98392.06;;;2.19;80.88
79465;BME280;68932;47.410;8.232;2024-01-30T09:24:17;98390.04;;;2.31;80.71
79465;BME280;68932;47.410;8.232;2024-01-30T09:26:45;98388.02;;;2.42;80.81
79465;BME280;68932;47.410;8.232;2024-01-30T09:29:13;98392.91;;;2.53;80.80
79465;BME280;68932;47.410;8.232;2024-01-30T09:31:44;98392.27;;;2.66;80.86
79465;BME280;68932;47.410;8.232;2024-01-30T09:34:13;98392.83;;;2.77;80.82
79465;BME280;68932;47.410;8.232;2024-01-30T09:36:41;98391.31;;;2.88;80.75
79465;BME280;68932;47.410;8.232;2024-01-30T09:39:09;98397.77;;;2.98;80.71
79465;BME280;68932;47.410;8.232;2024-01-30T09:41:42;98398.38;;;3.05;80.66
79465;BME280;68932;47.410;8.232;2024-01-30T09:44:13;98402.58;;;3.14;80.64
79465;BME280;68932;47.410;8.232;2024-01-30T09:46:43;98402.83;;;3.22;80.69
79465;BME280;68932;47.410;8.232;2024-01-30T09:49:15;98406.17;;;3.31;80.63
79465;BME280;68932;47.410;8.232;2024-01-30T09:51:43;98405.90;;;3.38;80.35
79465;BME280;68932;47.410;8.232;2024-01-30T09:54:15;98403.21;;;3.45;80.31
79465;BME280;68932;47.410;8.232;2024-01-30T09:56:43;98403.79;;;3.53;80.12
79465;BME280;68932;47.410;8.232;2024-01-30T09:59:12;98404.36;;;3.61;80.37
79465;BME280;68932;47.410;8.232;2024-01-30T10:01:41;98406.31;;;3.70;80.23
79465;BME280;68932;47.410;8.232;2024-01-30T10:04:10;98406.34;;;3.79;80.31
79465;BME280;68932;47.410;8.232;2024-01-30T10:06:39;98404.58;;;3.91;80.23
79465;BME280;68932;47.410;8.232;2024-01-30T10:09:08;98408.55;;;4.04;80.28
79465;BME280;68932;47.410;8.232;2024-01-30T10:11:37;98403.31;;;4.16;80.19
79465;BME280;68932;47.410;8.232;2024-01-30T10:14:05;98402.05;;;4.28;80.24
79465;BME280;68932;47.410;8.232;2024-01-30T10:16:33;98397.04;;;4.37;80.30
79465;BME280;68932;47.410;8.232;2024-01-30T10:19:02;98395.46;;;4.47;80.40
79465;BME280;68932;47.410;8.232;2024-01-30T10:21:31;98394.59;;;4.56;80.33
79465;BME280;68932;47.410;8.232;2024-01-30T10:23:59;98396.35;;;4.65;80.54
79465;BME280;68932;47.410;8.232;2024-01-30T10:26:27;98392.66;;;4.75;80.54
79465;BME280;68932;47.410;8.232;2024-01-30T10:28:55;98393.66;;;4.87;80.45
79465;BME280;68932;47.410;8.232;2024-01-30T10:31:23;98389.27;;;4.98;80.46
79465;BME280;68932;47.410;8.232;2024-01-30T10:33:53;98392.48;;;5.10;80.57
79465;BME280;68932;47.410;8.232;2024-01-30T10:36:24;98392.88;;;5.24;80.64
79465;BME280;68932;47.410;8.232;2024-01-30T10:38:57;98387.40;;;5.36;80.75
79465;BME280;68932;47.410;8.232;2024-01-30T10:41:28;98385.88;;;5.50;80.64
79465;BME280;68932;47.410;8.232;2024-01-30T10:44:09;98382.59;;;5.65;80.54
79465;BME280;68932;47.410;8.232;2024-01-30T10:46:39;98381.25;;;5.77;80.23
79465;BME280;68932;47.410;8.232;2024-01-30T10:49:09;98377.52;;;5.87;80.24
79465;BME280;68932;47.410;8.232;2024-01-30T10:51:39;98375.46;;;5.94;79.76
79465;BME280;68932;47.410;8.232;2024-01-30T10:54:09;98370.14;;;5.99;79.37
79465;BME280;68932;47.410;8.232;2024-01-30T10:56:39;98364.92;;;6.06;79.18
79465;BME280;68932;47.410;8.232;2024-01-30T10:59:08;98364.93;;;6.12;78.70
79465;BME280;68932;47.410;8.232;2024-01-30T11:01:37;98363.16;;;6.20;78.63
79465;BME280;68932;47.410;8.232;2024-01-30T11:04:06;98360.73;;;6.26;78.32
79465;BME280;68932;47.410;8.232;2024-01-30T11:06:42;98366.00;;;6.31;78.21
79465;BME280;68932;47.410;8.232;2024-01-30T11:09:12;98364.71;;;6.34;77.79
79465;BME280;68932;47.410;8.232;2024-01-30T11:11:52;98362.40;;;6.35;77.56
79465;BME280;68932;47.410;8.232;2024-01-30T11:14:27;98364.09;;;6.37;77.43
79465;BME280;68932;47.410;8.232;2024-01-30T11:16:58;98362.02;;;6.44;77.69
79465;BME280;68932;47.410;8.232;2024-01-30T11:19:27;98357.47;;;6.51;77.78
79465;BME280;68932;47.410;8.232;2024-01-30T11:21:55;98353.03;;;6.60;77.68
79465;BME280;68932;47.410;8.232;2024-01-30T11:24:24;98358.27;;;6.65;77.50
79465;BME280;68932;47.410;8.232;2024-01-30T11:26:57;98349.65;;;6.69;76.97
79465;BME280;68932;47.410;8.232;2024-01-30T11:29:28;98350.26;;;6.72;77.22
79465;BME280;68932;47.410;8.232;2024-01-30T11:31:57;98346.67;;;6.75;77.22
79465;BME280;68932;47.410;8.232;2024-01-30T11:34:26;98348.11;;;6.81;77.12
79465;BME280;68932;47.410;8.232;2024-01-30T11:36:58;98347.06;;;6.87;77.03
79465;BME280;68932;47.410;8.232;2024-01-30T11:39:28;98344.34;;;6.96;77.15
79465;BME280;68932;47.410;8.232;2024-01-30T11:41:57;98340.88;;;7.08;77.07
79465;BME280;68932;47.410;8.232;2024-01-30T11:44:26;98339.27;;;7.15;76.71
79465;BME280;68932;47.410;8.232;2024-01-30T11:46:55;98335.20;;;7.22;76.63
79465;BME280;68932;47.410;8.232;2024-01-30T11:49:24;98332.58;;;7.28;76.45
79465;BME280;68932;47.410;8.232;2024-01-30T11:51:53;98330.88;;;7.32;76.29
79465;BME280;68932;47.410;8.232;2024-01-30T11:54:22;98327.69;;;7.40;76.31
79465;BME280;68932;47.410;8.232;2024-01-30T11:56:50;98327.48;;;7.46;75.94
79465;BME280;68932;47.410;8.232;2024-01-30T11:59:19;98326.01;;;7.49;75.45
79465;BME280;68932;47.410;8.232;2024-01-30T12:01:47;98325.08;;;7.50;75.28
79465;BME280;68932;47.410;8.232;2024-01-30T12:04:16;98324.77;;;7.54;75.08
79465;BME280;68932;47.410;8.232;2024-01-30T12:06:44;98324.62;;;7.59;75.01
79465;BME280;68932;47.410;8.232;2024-01-30T12:09:13;98322.73;;;7.64;74.58
79465;BME280;68932;47.410;8.232;2024-01-30T12:11:46;98324.54;;;7.68;74.21
79465;BME280;68932;47.410;8.232;2024-01-30T12:14:15;98317.64;;;7.70;73.76
79465;BME280;68932;47.410;8.232;2024-01-30T12:16:47;98317.86;;;7.74;73.56
79465;BME280;68932;47.410;8.232;2024-01-30T12:19:23;98310.58;;;7.83;73.63
79465;BME280;68932;47.410;8.232;2024-01-30T12:21:56;98314.52;;;7.96;73.49
79465;BME280;68932;47.410;8.232;2024-01-30T12:24:25;98309.57;;;8.03;72.73
79465;BME280;68932;47.410;8.232;2024-01-30T12:26:56;98307.71;;;8.11;72.95
79465;BME280;68932;47.410;8.232;2024-01-30T12:29:24;98303.88;;;8.21;72.61
79465;BME280;68932;47.410;8.232;2024-01-30T12:31:55;98301.70;;;8.28;72.33
79465;BME280;68932;47.410;8.232;2024-01-30T12:34:26;98298.67;;;8.35;72.10
79465;BME280;68932;47.410;8.232;2024-01-30T12:36:54;98300.05;;;8.41;71.94
79465;BME280;68932;47.410;8.232;2024-01-30T12:39:22;98298.98;;;8.47;71.46
79465;BME280;68932;47.410;8.232;2024-01-30T12:41:51;98294.73;;;8.53;71.50
79465;BME280;68932;47.410;8.232;2024-01-30T12:44:19;98294.69;;;8.59;71.48
79465;BME280;68932;47.410;8.232;2024-01-30T12:46:48;98289.23;;;8.65;71.20
79465;BME280;68932;47.410;8.232;2024-01-30T12:49:16;98291.17;;;8.69;70.94
79465;BME280;68932;47.410;8.232;2024-01-30T12:51:44;98286.66;;;8.73;70.55
79465;BME280;68932;47.410;8.232;2024-01-30T12:54:14;98284.27;;;8.77;70.57
79465;BME280;68932;47.410;8.232;2024-01-30T12:56:42;98284.27;;;8.81;70.22
79465;BME280;68932;47.410;8.232;2024-01-30T12:59:10;98286.09;;;8.84;70.13
79465;BME280;68932;47.410;8.232;2024-01-30T13:01:39;98282.50;;;8.87;70.11
79465;BME280;68932;47.410;8.232;2024-01-30T13:04:07;98287.36;;;8.87;70.16
79465;BME280;68932;47.410;8.232;2024-01-30T13:06:35;98289.57;;;8.89;70.32
79465;BME280;68932;47.410;8.232;2024-01-30T13:09:04;98286.20;;;8.90;70.38
79465;BME280;68932;47.410;8.232;2024-01-30T13:11:32;98291.09;;;8.90;70.22
79465;BME280;68932;47.410;8.232;2024-01-30T13:14:00;98288.23;;;8.92;69.92
79465;BME280;68932;47.410;8.232;2024-01-30T13:16:28;98285.79;;;8.97;70.05
79465;BME280;68932;47.410;8.232;2024-01-30T13:18:57;98283.39;;;9.04;70.07